San Antonio, Texas
Traffic Map
Current Weather Conditions
San Antonio, Texas
Few Clouds
Few Clouds
92°
Feels Like: 94°
Wind Chill: 92° Ceiling: Unl
Heat Index: 94° Visibility: 10mi
Dew Point: 64° Wind: 6mph
Humidity: 39% Direction: 110° (ESE)
Pressure: 29.98in Gusts: 0mph
Raw Report DataKSKF 230058Z 11005KT 10SM FEW250 34/18 A2998 RMK AO2A SLP144 WND DATA ESTMD T03350180 $
Traffic Incident Summary
Active as of:
Severity:
Category:
InformationThere was an issue retrieving the traffic information for this location. Please try a different location or try again shortly.
Advertisements
Track Severe Weather on mobile